Time;durP1;ratioP1;P1;durP2;ratioP2;P2;SDS_P1;SDS_P2;PMS_P1;PMS_P2;Temp;Humidity;BMP_temperature;BMP_pressure;BME280_temperature;BME280_humidity;BME280_pressure;Samples;Min_cycle;Max_cycle;Signal;HPM_P1;HPM_P2
2022/07/24 00:01:02;;;;;;;;;18.75;18.50;;;;;25.06;38.89;101513.44;5044608;28;45576;-59
2022/07/24 00:03:27;;;;;;;;;24.50;19.50;;;;;25.06;38.64;101520.66;5048459;28;45386;-59
2022/07/24 00:05:53;;;;;;;;;17.75;17.00;;;;;25.01;38.47;101517.41;5042619;28;45451;-59
2022/07/24 00:08:18;;;;;;;;;23.75;20.00;;;;;24.99;38.80;101521.06;5042257;28;45256;-59
2022/07/24 00:10:44;;;;;;;;;21.50;20.50;;;;;24.98;38.85;101531.88;5042399;28;45311;-59
2022/07/24 00:13:09;;;;;;;;;19.50;16.00;;;;;24.95;39.14;101521.34;5041811;28;46269;-59
2022/07/24 00:15:34;;;;;;;;;19.75;18.50;;;;;24.92;39.15;101527.75;5042477;28;45392;-59
2022/07/24 00:18:00;;;;;;;;;19.50;18.25;;;;;24.90;38.96;101526.13;5042218;28;45629;-59
2022/07/24 00:20:25;;;;;;;;;18.00;15.75;;;;;24.88;39.25;101523.56;5042334;28;45545;-59
2022/07/24 00:22:50;;;;;;;;;19.00;18.50;;;;;24.85;39.10;101526.41;5042168;28;45695;-59
2022/07/24 00:25:16;;;;;;;;;16.75;16.50;;;;;24.82;39.21;101529.31;5042306;28;45532;-60
2022/07/24 00:27:41;;;;;;;;;20.75;18.00;;;;;24.79;39.10;101516.94;5042146;28;45451;-60
2022/07/24 00:30:07;;;;;;;;;19.50;17.00;;;;;24.77;39.18;101528.72;5042217;28;45581;-61
2022/07/24 00:32:33;;;;;;;;;21.50;18.25;;;;;24.74;39.42;101529.78;5041710;28;45359;-61
2022/07/24 00:34:58;;;;;;;;;15.25;15.25;;;;;24.72;39.11;101517.41;5042140;28;45195;-61
2022/07/24 00:37:23;;;;;;;;;16.25;15.75;;;;;24.69;39.54;101529.22;5024414;28;45333;-61
2022/07/24 00:39:49;;;;;;;;;18.50;17.25;;;;;24.67;39.42;101518.53;5060640;28;45648;-61
2022/07/24 00:42:14;;;;;;;;;20.75;19.50;;;;;24.62;39.25;101509.00;5048341;28;45360;-61
2022/07/24 00:44:40;;;;;;;;;21.50;18.75;;;;;24.64;39.44;101512.44;5041837;28;45221;-61
2022/07/24 00:47:05;;;;;;;;;16.75;15.50;;;;;24.60;39.23;101500.16;5041874;28;45306;-61
2022/07/24 00:49:30;;;;;;;;;19.25;18.25;;;;;24.60;39.58;101497.47;5041674;28;45273;-61
2022/07/24 00:51:56;;;;;;;;;16.50;16.00;;;;;24.57;39.78;101487.78;5054108;28;45254;-61
2022/07/24 00:54:23;;;;;;;;;13.50;13.50;;;;;24.51;39.59;101485.47;5061346;28;45479;-61
2022/07/24 00:56:51;;;;;;;;;19.00;17.25;;;;;24.52;39.65;101486.38;5061742;28;45327;-61
2022/07/24 00:59:18;;;;;;;;;20.00;18.25;;;;;24.44;39.81;101470.69;5061604;28;45338;-61
2022/07/24 01:01:44;;;;;;;;;16.75;16.75;;;;;24.49;39.79;101479.34;5061389;28;45209;-61
2022/07/24 01:04:10;;;;;;;;;20.50;19.25;;;;;24.45;39.72;101477.78;5041963;28;45337;-61
2022/07/24 01:06:36;;;;;;;;;16.00;15.50;;;;;24.44;40.10;101474.25;5041787;28;45157;-61
2022/07/24 01:09:01;;;;;;;;;19.00;16.50;;;;;24.42;40.06;101472.63;5041526;28;45250;-61
2022/07/24 01:11:28;;;;;;;;;15.50;14.75;;;;;24.38;40.10;101471.06;5041169;28;45245;-61
2022/07/24 01:13:54;;;;;;;;;18.75;17.75;;;;;24.36;40.22;101467.63;5041518;28;45490;-61
2022/07/24 01:16:19;;;;;;;;;18.25;18.25;;;;;24.33;39.90;101474.06;5041212;28;45420;-61
2022/07/24 01:18:44;;;;;;;;;16.25;16.00;;;;;24.32;39.93;101472.31;5023393;28;45255;-61
2022/07/24 01:21:10;;;;;;;;;21.50;17.00;;;;;24.31;40.02;101471.47;5041068;28;46271;-61
2022/07/24 01:23:36;;;;;;;;;18.00;16.75;;;;;24.28;40.17;101473.47;5041232;28;45342;-61
2022/07/24 01:26:01;;;;;;;;;18.50;17.25;;;;;24.25;40.42;101470.94;5041208;28;45341;-61
2022/07/24 01:28:27;;;;;;;;;15.25;12.00;;;;;24.25;40.25;101476.31;5023431;28;45413;-61
2022/07/24 01:30:53;;;;;;;;;17.00;16.50;;;;;24.22;40.36;101481.91;5046495;28;47212;-61
2022/07/24 01:33:18;;;;;;;;;17.25;17.25;;;;;24.19;40.50;101488.31;5041275;28;45224;-61
2022/07/24 01:35:43;;;;;;;;;16.25;15.00;;;;;24.18;40.28;101491.94;5040776;28;45652;-61
2022/07/24 01:38:10;;;;;;;;;15.50;15.25;;;;;24.15;40.59;101493.00;5041168;28;45456;-61
2022/07/24 01:40:35;;;;;;;;;18.00;16.00;;;;;24.12;40.58;101484.25;5040785;28;45171;-61
2022/07/24 01:43:01;;;;;;;;;19.50;18.75;;;;;24.11;40.75;101490.56;5040605;28;45245;-61
2022/07/24 01:45:26;;;;;;;;;23.25;19.00;;;;;24.10;40.50;101495.09;5041093;28;45167;-62
2022/07/24 01:47:52;;;;;;;;;19.25;18.75;;;;;24.04;40.74;101484.72;5040934;28;45605;-62
2022/07/24 01:50:17;;;;;;;;;18.25;15.25;;;;;24.04;40.67;101490.09;5022769;28;47054;-62
2022/07/24 01:52:43;;;;;;;;;24.25;19.00;;;;;24.02;40.69;101486.63;5059456;28;45237;-62
2022/07/24 01:55:09;;;;;;;;;19.25;16.50;;;;;24.01;40.75;101485.78;5061085;28;45339;-61
2022/07/24 01:57:35;;;;;;;;;16.00;13.75;;;;;23.99;40.63;101487.66;5060514;28;45316;-62
2022/07/24 02:00:01;;;;;;;;;19.25;18.75;;;;;23.97;41.02;101478.84;5060531;28;45403;-61
2022/07/24 02:02:27;;;;;;;;;18.00;17.50;;;;;23.96;40.93;101482.50;5054739;28;45281;-62
2022/07/24 02:04:53;;;;;;;;;24.25;20.50;;;;;23.95;41.09;101486.13;5040767;28;45308;-61
2022/07/24 02:07:18;;;;;;;;;17.25;15.75;;;;;23.93;41.02;101479.13;5039538;28;45490;-61
2022/07/24 02:09:43;;;;;;;;;18.25;17.25;;;;;23.90;40.83;101468.53;5022695;28;47063;-61
2022/07/24 02:12:09;;;;;;;;;20.25;18.50;;;;;23.87;41.09;101466.88;5040131;28;45210;-61
2022/07/24 02:14:34;;;;;;;;;16.75;15.50;;;;;23.89;41.00;101472.19;5043460;28;45319;-61
2022/07/24 02:16:59;;;;;;;;;20.25;17.00;;;;;23.86;41.02;101473.19;5041500;28;45483;-61
2022/07/24 02:19:25;;;;;;;;;15.00;13.00;;;;;23.83;41.33;101470.72;5040486;28;45271;-61
2022/07/24 02:21:50;;;;;;;;;17.00;15.75;;;;;23.83;41.31;101478.75;5040263;28;45204;-62
2022/07/24 02:24:16;;;;;;;;;18.00;18.00;;;;;23.80;41.19;101476.28;5040538;28;45262;-61
2022/07/24 02:26:41;;;;;;;;;17.00;14.25;;;;;23.77;41.47;101471.97;5040108;28;45162;-62
2022/07/24 02:29:07;;;;;;;;;17.50;16.25;;;;;23.73;41.39;101467.69;5040329;28;46018;-61
2022/07/24 02:31:32;;;;;;;;;19.25;18.50;;;;;23.72;41.47;101468.66;5039992;28;45278;-62
2022/07/24 02:33:58;;;;;;;;;17.50;17.50;;;;;23.69;41.42;101460.78;5040320;28;45295;-62
2022/07/24 02:36:23;;;;;;;;;16.50;15.50;;;;;23.70;41.47;101463.38;5040096;28;45427;-62
2022/07/24 02:38:49;;;;;;;;;18.50;17.25;;;;;23.67;41.60;101455.53;5040245;28;46676;-61
2022/07/24 02:41:14;;;;;;;;;19.00;17.00;;;;;23.66;41.48;101452.91;5039742;28;45467;-61
2022/07/24 02:43:39;;;;;;;;;22.50;21.50;;;;;23.64;41.69;101454.84;5040220;28;45456;-62
2022/07/24 02:46:05;;;;;;;;;23.50;20.50;;;;;23.62;41.75;101452.25;5039918;28;45332;-62
2022/07/24 02:48:30;;;;;;;;;19.75;19.00;;;;;23.60;41.57;101447.94;5039908;28;45348;-62
2022/07/24 02:50:55;;;;;;;;;21.75;17.75;;;;;23.57;41.78;101440.94;5043982;28;45712;-61
2022/07/24 02:53:21;;;;;;;;;16.25;15.50;;;;;23.55;41.54;101442.81;5060166;28;45373;-61
2022/07/24 02:55:46;;;;;;;;;19.25;18.00;;;;;23.54;41.83;101441.09;5025179;28;45527;-62
2022/07/24 02:58:12;;;;;;;;;24.75;20.00;;;;;23.53;41.95;101434.88;5048945;28;45253;-62
2022/07/24 03:00:37;;;;;;;;;20.25;16.75;;;;;23.50;41.79;101426.13;5039632;28;45328;-62
2022/07/24 03:03:02;;;;;;;;;17.75;17.00;;;;;23.47;41.83;101421.81;5029577;28;45333;-62
2022/07/24 03:05:28;;;;;;;;;19.25;17.50;;;;;23.45;42.06;101423.72;5039674;28;45166;-62
2022/07/24 03:07:53;;;;;;;;;19.25;17.75;;;;;23.42;41.93;101421.22;5039812;28;45767;-62
2022/07/24 03:10:19;;;;;;;;;21.50;17.75;;;;;23.40;42.24;101417.75;5039612;28;45507;-62
2022/07/24 03:12:44;;;;;;;;;20.50;19.50;;;;;23.37;42.18;101417.94;5021632;28;45330;-62
2022/07/24 03:15:12;;;;;;;;;20.50;17.75;;;;;23.34;42.21;101416.28;5039661;28;45167;-62
2022/07/24 03:17:37;;;;;;;;;20.25;17.50;;;;;23.32;42.03;101417.31;5041036;28;45282;-62
2022/07/24 03:20:04;;;;;;;;;19.50;17.75;;;;;23.29;42.44;101418.34;5043039;28;45358;-62
2022/07/24 03:22:29;;;;;;;;;22.50;21.00;;;;;23.27;41.78;101425.63;5043233;28;45292;-62
2022/07/24 03:24:55;;;;;;;;;19.50;18.50;;;;;23.25;42.30;101419.50;5042987;28;45443;-62
2022/07/24 03:27:20;;;;;;;;;20.00;17.25;;;;;23.23;42.49;101424.06;5042349;28;45388;-62
2022/07/24 03:29:45;;;;;;;;;23.00;16.75;;;;;23.21;42.39;101421.47;5043026;28;45312;-62
2022/07/24 03:32:11;;;;;;;;;19.00;17.25;;;;;23.19;42.40;101420.72;5043008;28;45551;-62
2022/07/24 03:34:36;;;;;;;;;19.75;17.25;;;;;23.18;42.39;101423.47;5025095;28;45394;-62
2022/07/24 03:37:02;;;;;;;;;19.50;18.50;;;;;23.16;42.52;101422.72;5042801;28;47050;-62
2022/07/24 03:39:27;;;;;;;;;18.00;15.25;;;;;23.15;42.73;101418.25;5042874;28;45242;-62
2022/07/24 03:41:52;;;;;;;;;18.25;16.00;;;;;23.12;42.62;101415.72;5042753;28;45229;-62
2022/07/24 03:44:18;;;;;;;;;17.50;17.50;;;;;23.11;42.56;101422.06;5042825;28;45213;-62
2022/07/24 03:46:43;;;;;;;;;20.25;17.25;;;;;23.06;42.43;101427.69;5024771;28;45367;-62
2022/07/24 03:49:08;;;;;;;;;17.75;17.25;;;;;23.02;42.98;101418.09;5042843;28;45448;-61
2022/07/24 03:51:35;;;;;;;;;16.25;15.00;;;;;23.02;42.71;101432.34;5033787;28;45167;-62
2022/07/24 03:54:01;;;;;;;;;17.75;16.25;;;;;23.01;42.77;101429.75;5044555;28;45298;-62
2022/07/24 03:56:28;;;;;;;;;18.00;16.50;;;;;22.99;43.08;101434.31;5062350;28;47036;-62
2022/07/24 03:58:53;;;;;;;;;18.00;18.00;;;;;22.97;42.75;101430.88;5062485;28;45443;-62
2022/07/24 04:01:19;;;;;;;;;20.25;18.00;;;;;22.95;42.52;101430.09;5044478;28;45343;-62
2022/07/24 04:03:44;;;;;;;;;20.75;18.50;;;;;22.93;42.33;101435.53;5046110;28;45309;-62
2022/07/24 04:06:09;;;;;;;;;14.75;14.75;;;;;22.92;42.52;101425.78;5040167;28;47125;-62
2022/07/24 04:08:35;;;;;;;;;18.00;16.00;;;;;22.90;42.64;101424.97;5046401;28;45417;-62
2022/07/24 04:11:00;;;;;;;;;15.50;15.25;;;;;22.89;42.85;101426.81;5024502;28;45419;-62
2022/07/24 04:13:29;;;;;;;;;19.00;16.75;;;;;22.88;42.61;101424.22;5042040;28;45335;-62
2022/07/24 04:15:56;;;;;;;;;16.50;15.00;;;;;22.88;42.84;101430.44;5042178;28;46400;-62
2022/07/24 04:18:22;;;;;;;;;16.50;16.50;;;;;22.84;43.04;101428.88;5042205;28;45459;-62
2022/07/24 04:20:47;;;;;;;;;22.00;19.50;;;;;22.86;43.07;101431.47;5024488;28;45485;-62
2022/07/24 04:23:13;;;;;;;;;18.50;18.00;;;;;22.85;43.10;101429.72;5042320;28;45565;-62
2022/07/24 04:25:38;;;;;;;;;20.25;17.50;;;;;22.86;43.36;101434.16;5041968;28;45463;-62
2022/07/24 04:28:04;;;;;;;;;20.25;19.75;;;;;22.84;43.15;101434.25;5023463;28;45443;-62
2022/07/24 04:30:30;;;;;;;;;21.25;19.25;;;;;22.82;43.05;101424.56;5041528;28;45285;-62
2022/07/24 04:32:56;;;;;;;;;21.25;17.75;;;;;22.83;42.86;101431.63;5023904;28;45582;-62
2022/07/24 04:35:21;;;;;;;;;23.25;23.00;;;;;22.82;43.20;101435.28;5041934;28;45262;-62
2022/07/24 04:37:47;;;;;;;;;18.00;17.25;;;;;22.82;43.06;101444.16;5041962;28;45296;-67
2022/07/24 04:40:13;;;;;;;;;19.00;18.00;;;;;22.81;43.44;101438.91;5042152;28;45181;-63
2022/07/24 04:42:39;;;;;;;;;17.00;16.00;;;;;22.75;43.40;101423.16;5023727;28;45233;-64
2022/07/24 04:45:05;;;;;;;;;22.00;18.25;;;;;22.80;43.08;101443.38;5041817;28;45267;-63
2022/07/24 04:47:31;;;;;;;;;18.00;16.50;;;;;22.78;43.43;101441.72;5041559;28;45163;-62
2022/07/24 04:49:56;;;;;;;;;23.00;22.00;;;;;22.78;43.41;101439.06;5041863;28;45202;-62
2022/07/24 04:52:21;;;;;;;;;20.75;20.75;;;;;22.77;43.52;101443.56;5057830;28;45510;-62
2022/07/24 04:54:47;;;;;;;;;23.75;18.00;;;;;22.76;43.35;101438.28;5061681;28;46109;-62
2022/07/24 04:57:12;;;;;;;;;18.50;17.75;;;;;22.77;43.28;101424.81;5061414;28;45543;-62
2022/07/24 04:59:38;;;;;;;;;20.50;16.00;;;;;22.77;43.20;101432.84;5061740;28;45340;-62
2022/07/24 05:02:03;;;;;;;;;18.25;16.00;;;;;22.77;43.31;101437.34;5059269;28;45389;-62
2022/07/24 05:04:28;;;;;;;;;17.50;17.25;;;;;22.76;43.58;101424.91;5037754;28;46244;-62
2022/07/24 05:06:54;;;;;;;;;19.75;19.00;;;;;22.73;43.38;101416.06;5046256;28;45424;-62
2022/07/24 05:09:20;;;;;;;;;20.25;18.25;;;;;22.75;43.32;101431.19;5041792;28;45689;-62
2022/07/24 05:11:45;;;;;;;;;18.25;17.75;;;;;22.71;43.94;101428.66;5041188;28;45486;-62
2022/07/24 05:14:11;;;;;;;;;20.00;18.50;;;;;22.74;43.39;101438.34;5041474;28;46284;-62
2022/07/24 05:16:36;;;;;;;;;15.75;15.75;;;;;22.71;43.49;101436.69;5023299;28;45365;-62
2022/07/24 05:19:02;;;;;;;;;17.75;14.50;;;;;22.70;43.65;101429.63;5041740;28;45599;-62
2022/07/24 05:21:27;;;;;;;;;22.00;18.00;;;;;22.69;43.55;101433.25;5041429;28;45498;-62
2022/07/24 05:23:52;;;;;;;;;17.75;16.75;;;;;22.68;43.43;101439.56;5041164;28;45414;-62
2022/07/24 05:26:18;;;;;;;;;16.75;16.00;;;;;22.68;43.83;101438.72;5041051;28;45373;-62
2022/07/24 05:28:43;;;;;;;;;22.50;20.00;;;;;22.68;43.85;101431.53;5023766;28;45294;-62
2022/07/24 05:31:08;;;;;;;;;19.75;16.50;;;;;22.67;43.43;101437.81;5041039;28;45229;-62
2022/07/24 05:33:34;;;;;;;;;19.25;16.75;;;;;22.65;43.69;101428.16;5041055;28;45936;-62
2022/07/24 05:36:00;;;;;;;;;20.50;19.75;;;;;22.68;43.86;101438.72;5041001;28;45293;-63
2022/07/24 05:38:25;;;;;;;;;22.75;20.50;;;;;22.68;44.08;101434.22;5035880;28;45914;-62
2022/07/24 05:40:50;;;;;;;;;20.50;19.50;;;;;22.69;43.78;101435.94;5044869;28;45393;-61
2022/07/24 05:43:16;;;;;;;;;15.75;15.75;;;;;22.69;43.75;101435.94;5040929;28;45234;-62
2022/07/24 05:45:42;;;;;;;;;20.00;17.00;;;;;22.69;43.97;101437.72;5022941;28;45262;-62
2022/07/24 05:48:07;;;;;;;;;18.75;17.00;;;;;22.68;43.82;101438.72;5041269;28;45306;-62
2022/07/24 05:50:33;;;;;;;;;13.00;12.50;;;;;22.68;44.21;101434.22;5041538;28;45331;-62
2022/07/24 05:52:58;;;;;;;;;19.50;18.00;;;;;22.70;44.32;101431.44;5060836;28;45410;-62
2022/07/24 05:55:23;;;;;;;;;18.75;16.25;;;;;22.71;43.84;101435.84;5060973;28;45391;-62
2022/07/24 05:57:49;;;;;;;;;20.25;19.50;;;;;22.72;43.98;101434.91;5060696;28;45296;-62
2022/07/24 06:00:18;;;;;;;;;18.50;17.25;;;;;22.71;44.26;101427.81;5060907;28;45415;-63
2022/07/24 06:02:47;;;;;;;;;18.00;17.75;;;;;22.72;44.30;101433.09;5052645;28;46222;-61
2022/07/24 06:05:14;;;;;;;;;20.50;20.50;;;;;22.72;43.77;101438.44;5040671;28;45561;-62
2022/07/24 06:07:39;;;;;;;;;19.00;17.50;;;;;22.73;44.21;101434.81;5040672;28;45436;-63
2022/07/24 06:10:05;;;;;;;;;15.25;15.25;;;;;22.76;43.75;101438.28;5040446;28;45426;-61
2022/07/24 06:12:30;;;;;;;;;19.75;17.25;;;;;22.76;43.90;101439.13;5040232;28;46197;-63
2022/07/24 06:14:56;;;;;;;;;19.50;16.50;;;;;22.76;43.92;101431.09;5040343;28;46210;-63
2022/07/24 06:17:21;;;;;;;;;18.50;18.50;;;;;22.78;44.41;101426.53;5030512;28;45404;-61
2022/07/24 06:19:46;;;;;;;;;18.25;18.00;;;;;22.76;44.15;101422.22;5039045;28;45443;-61
2022/07/24 06:22:12;;;;;;;;;21.00;18.25;;;;;22.79;43.91;101425.59;5040582;28;46258;-61
2022/07/24 06:24:37;;;;;;;;;17.00;17.00;;;;;22.79;44.17;101416.69;5040220;28;45308;-62
2022/07/24 06:27:04;;;;;;;;;21.75;19.25;;;;;22.83;44.30;101426.25;5040316;28;45303;-62
2022/07/24 06:29:30;;;;;;;;;20.50;17.25;;;;;22.84;44.32;101423.53;5040281;28;45369;-62
2022/07/24 06:31:55;;;;;;;;;19.50;18.25;;;;;22.85;44.50;101419.00;5040044;28;45379;-62
2022/07/24 06:34:23;;;;;;;;;19.25;18.25;;;;;22.86;44.50;101420.75;5040142;28;45336;-62
2022/07/24 06:36:49;;;;;;;;;18.75;16.25;;;;;22.90;44.52;101419.63;5040527;28;45419;-62
2022/07/24 06:39:15;;;;;;;;;16.75;16.75;;;;;22.91;44.84;101417.81;5040219;28;45538;-63
2022/07/24 06:41:40;;;;;;;;;17.00;16.00;;;;;22.95;44.39;101412.19;5039873;28;46306;-63
2022/07/24 06:44:05;;;;;;;;;20.50;19.50;;;;;22.98;44.59;101416.50;5040005;28;45340;-64
2022/07/24 06:46:31;;;;;;;;;20.00;18.25;;;;;22.99;44.71;101407.53;5040261;28;45269;-61
2022/07/24 06:48:56;;;;;;;;;17.50;17.50;;;;;23.02;44.59;101405.53;5039877;28;45433;-62
2022/07/24 06:51:21;;;;;;;;;20.00;17.50;;;;;23.04;44.56;101414.38;5047360;28;45589;-63
2022/07/24 06:53:47;;;;;;;;;19.25;18.00;;;;;23.02;44.57;101394.81;5059567;28;45299;-61
2022/07/24 06:56:12;;;;;;;;;21.25;19.00;;;;;23.07;44.50;101409.78;5060058;28;45376;-61
2022/07/24 06:58:38;;;;;;;;;19.00;18.50;;;;;23.12;44.60;101410.38;5059971;28;45146;-62
2022/07/24 07:01:03;;;;;;;;;19.75;19.75;;;;;23.16;44.38;101412.84;5041497;28;47119;-63
2022/07/24 07:03:28;;;;;;;;;19.25;19.25;;;;;23.20;44.58;101410.84;5045617;28;45301;-62
2022/07/24 07:05:54;;;;;;;;;23.00;20.00;;;;;23.21;44.57;101404.53;5022040;28;45404;-62
2022/07/24 07:08:19;;;;;;;;;18.75;18.50;;;;;23.22;44.63;101400.91;5039793;28;45416;-62
2022/07/24 07:10:44;;;;;;;;;21.00;19.75;;;;;23.31;44.65;101410.25;5039429;28;46157;-62
2022/07/24 07:13:10;;;;;;;;;20.00;19.25;;;;;23.33;44.84;101411.88;5039684;28;45167;-62
2022/07/24 07:15:35;;;;;;;;;20.50;18.50;;;;;23.36;44.79;101413.53;5021976;28;45313;-63
2022/07/24 07:18:00;;;;;;;;;26.75;22.75;;;;;23.40;44.93;101407.03;5039475;28;45306;-63
2022/07/24 07:20:26;;;;;;;;;25.50;21.25;;;;;23.44;44.81;101407.72;5021705;28;48112;-62
2022/07/24 07:22:51;;;;;;;;;22.50;20.00;;;;;23.45;44.84;101412.13;5039603;28;45233;-62
2022/07/24 07:25:16;;;;;;;;;26.00;23.75;;;;;23.50;45.03;101415.41;5058373;28;45270;-63
2022/07/24 07:27:42;;;;;;;;;19.50;18.00;;;;;23.52;45.14;101414.34;5046133;28;45494;-62
2022/07/24 07:30:09;;;;;;;;;25.75;23.50;;;;;23.57;44.96;101418.59;5058386;28;48057;-63
2022/07/24 07:32:35;;;;;;;;;34.00;26.50;;;;;23.60;44.79;101419.28;5045979;28;45429;-63
2022/07/24 07:35:00;;;;;;;;;23.75;22.50;;;;;23.65;44.89;101419.88;5039583;28;45305;-63
2022/07/24 07:37:26;;;;;;;;;22.75;20.00;;;;;23.69;44.95;101415.19;5021577;28;45738;-62
2022/07/24 07:39:51;;;;;;;;;22.50;21.50;;;;;23.70;44.85;101412.41;5037897;28;45368;-62
2022/07/24 07:42:17;;;;;;;;;24.50;23.50;;;;;23.78;45.11;101413.78;5052023;28;45613;-61
2022/07/24 07:44:42;;;;;;;;;28.25;22.75;;;;;23.80;44.87;101419.94;5059616;28;45314;-62
2022/07/24 07:47:07;;;;;;;;;27.75;24.75;;;;;23.85;45.23;101416.00;5059282;28;45417;-62
2022/07/24 07:49:33;;;;;;;;;22.50;21.00;;;;;23.87;45.12;101410.53;5058182;28;46063;-62
2022/07/24 07:51:58;;;;;;;;;23.25;21.50;;;;;23.92;45.20;101405.78;5041020;28;45642;-61
2022/07/24 07:54:24;;;;;;;;;23.00;22.25;;;;;23.97;45.24;101413.56;5041193;28;45278;-61
2022/07/24 07:56:49;;;;;;;;;24.50;21.50;;;;;24.01;45.17;101407.94;5040920;28;45504;-63
2022/07/24 07:59:14;;;;;;;;;23.75;22.50;;;;;24.06;45.39;101401.41;5024282;28;46611;-62
2022/07/24 08:01:40;;;;;;;;;23.50;22.75;;;;;24.12;45.17;101396.53;5040953;28;45400;-62
2022/07/24 08:04:05;;;;;;;;;23.00;21.25;;;;;24.18;44.89;101395.28;5038678;28;45229;-62
2022/07/24 08:06:31;;;;;;;;;20.00;20.00;;;;;24.24;45.14;101394.91;5037056;28;45194;-60
2022/07/24 08:08:56;;;;;;;;;20.50;18.50;;;;;24.28;44.87;101400.97;5062526;28;46332;-63
2022/07/24 08:11:22;;;;;;;;;19.00;16.50;;;;;24.28;44.68;101387.53;5062386;28;45218;-62
2022/07/24 08:13:50;;;;;;;;;25.25;19.00;;;;;24.42;44.98;101392.06;5062437;28;45627;-62
2022/07/24 08:16:15;;;;;;;;;22.00;19.75;;;;;24.44;44.83;101396.38;5044259;28;45443;-62
2022/07/24 08:18:41;;;;;;;;;17.75;17.00;;;;;24.48;44.77;101397.03;5061937;28;45470;-62
2022/07/24 08:21:06;;;;;;;;;21.50;18.50;;;;;24.54;44.67;101391.28;5062433;28;45312;-63
2022/07/24 08:23:32;;;;;;;;;21.00;17.00;;;;;24.60;44.82;101385.53;5062404;28;45739;-63
2022/07/24 08:25:57;;;;;;;;;19.25;18.25;;;;;24.65;44.96;101380.75;5062242;28;45453;-63
2022/07/24 08:28:22;;;;;;;;;19.50;19.50;;;;;24.72;44.77;101377.69;5062059;28;46148;-63
2022/07/24 08:30:49;;;;;;;;;17.25;15.75;;;;;24.76;44.84;101376.50;5044086;28;45644;-63
2022/07/24 08:33:15;;;;;;;;;22.50;22.50;;;;;24.80;44.84;101372.66;5043116;28;45259;-63
2022/07/24 08:35:40;;;;;;;;;20.50;18.00;;;;;24.88;44.64;101381.09;5041995;28;45167;-64
2022/07/24 08:38:05;;;;;;;;;20.75;19.75;;;;;24.94;44.61;101378.00;5041882;28;45848;-63
2022/07/24 08:40:36;;;;;;;;;19.00;16.75;;;;;24.99;44.61;101375.88;5023886;28;45350;-63
2022/07/24 08:43:03;;;;;;;;;16.75;16.75;;;;;25.02;44.57;101366.75;5042021;28;45384;-60
2022/07/24 08:45:29;;;;;;;;;18.25;16.25;;;;;25.11;44.76;101373.34;5041920;28;45392;-62
2022/07/24 08:47:56;;;;;;;;;19.00;16.50;;;;;25.18;44.72;101373.81;5041610;28;46137;-62
2022/07/24 08:50:22;;;;;;;;;17.50;17.50;;;;;25.24;44.40;101376.09;5023879;28;45290;-62
2022/07/24 08:52:48;;;;;;;;;19.50;19.50;;;;;25.29;44.10;101369.41;5061306;28;45283;-62
2022/07/24 08:55:14;;;;;;;;;16.50;16.25;;;;;25.38;44.13;101364.44;5061964;28;45341;-62
2022/07/24 08:57:39;;;;;;;;;20.50;17.50;;;;;25.40;44.32;101358.00;5061486;28;45415;-63
2022/07/24 09:00:05;;;;;;;;;16.50;15.00;;;;;25.48;43.59;101352.09;5061694;28;45336;-62
2022/07/24 09:02:31;;;;;;;;;18.25;18.25;;;;;25.54;43.56;101359.75;5043602;28;45304;-62
2022/07/24 09:05:00;;;;;;;;;13.75;13.75;;;;;25.50;44.10;101328.66;5061673;28;45324;-62
2022/07/24 09:07:29;;;;;;;;;16.75;15.00;;;;;25.69;43.83;101347.06;5061881;28;45376;-62
2022/07/24 09:10:09;;;;;;;;;14.75;14.50;;;;;25.76;43.38;101342.13;5060738;28;45384;-62
2022/07/24 09:12:38;;;;;;;;;14.75;14.50;;;;;25.85;43.23;101338.81;5061349;28;45379;-62
2022/07/24 09:15:29;;;;;;;;;9.25;8.50;;;;;25.92;43.34;101339.22;5061174;28;45495;-62
2022/07/24 09:17:56;;;;;;;;;10.00;10.00;;;;;26.00;42.72;101338.69;5061336;28;46195;-62
2022/07/24 09:20:24;;;;;;;;;14.25;10.75;;;;;26.08;42.96;101333.69;5061583;28;45252;-62
2022/07/24 09:22:50;;;;;;;;;7.50;7.50;;;;;26.09;42.27;101322.78;5061677;28;45368;-62
2022/07/24 09:25:15;;;;;;;;;11.25;9.75;;;;;26.18;42.07;101326.66;5061399;28;45364;-62
2022/07/24 09:27:52;;;;;;;;;12.25;10.50;;;;;26.27;41.16;101325.16;5061129;28;45346;-62
2022/07/24 09:30:41;;;;;;;;;8.75;8.75;;;;;26.37;41.73;101325.34;5035144;28;45349;-62
2022/07/24 09:33:12;;;;;;;;;9.75;8.75;;;;;26.46;40.99;101316.59;5059174;28;45266;-62
2022/07/24 09:35:40;;;;;;;;;9.50;9.00;;;;;26.46;40.90;101305.81;5061267;28;45312;-62
2022/07/24 09:38:08;;;;;;;;;8.50;8.50;;;;;26.61;40.55;101318.16;5060979;28;46308;-62
2022/07/24 09:40:41;;;;;;;;;12.00;10.00;;;;;26.71;41.17;101322.88;5042627;28;45467;-62
2022/07/24 09:43:26;;;;;;;;;11.50;11.50;;;;;26.80;40.83;101316.84;5043288;28;45171;-62
2022/07/24 09:45:52;;;;;;;;;10.75;10.25;;;;;26.86;40.41;101308.31;5042835;28;45728;-62
2022/07/24 09:48:21;;;;;;;;;12.00;12.00;;;;;26.97;40.25;101303.94;5060940;28;47391;-62
2022/07/24 09:50:51;;;;;;;;;13.00;12.50;;;;;27.03;39.83;101308.88;5052205;28;45336;-63
2022/07/24 09:53:23;;;;;;;;;15.00;14.00;;;;;27.16;39.67;101301.59;5061186;28;45296;-61
2022/07/24 09:56:16;;;;;;;;;19.25;16.75;;;;;27.27;40.26;101300.78;5042624;28;45270;-61
2022/07/24 09:58:44;;;;;;;;;13.50;13.50;;;;;27.35;40.18;101298.34;5044702;28;45463;-60
2022/07/24 10:01:10;;;;;;;;;15.00;15.00;;;;;27.44;39.83;101299.50;5043312;28;45258;-62
2022/07/24 10:03:38;;;;;;;;;13.75;12.25;;;;;27.56;39.45;101293.16;5027397;28;45342;-62
2022/07/24 10:06:17;;;;;;;;;11.75;10.00;;;;;27.65;39.49;101294.28;5040695;28;45489;-62
2022/07/24 10:08:46;;;;;;;;;13.25;12.25;;;;;27.76;39.57;101303.38;5022782;28;45918;-62
2022/07/24 10:11:12;;;;;;;;;13.25;13.25;;;;;27.84;39.60;101295.53;5022293;28;45271;-62
2022/07/24 10:13:39;;;;;;;;;12.25;12.25;;;;;27.88;39.35;101287.06;5035843;28;45314;-62
2022/07/24 10:16:13;;;;;;;;;13.75;12.75;;;;;27.99;39.04;101294.31;5040429;28;45320;-62
2022/07/24 10:18:52;;;;;;;;;14.00;14.00;;;;;28.10;38.98;101282.69;5057885;28;46052;-62
2022/07/24 10:21:23;;;;;;;;;12.00;10.50;;;;;28.18;38.85;101282.06;5038897;28;46205;-63
2022/07/24 10:23:51;;;;;;;;;13.75;12.00;;;;;28.27;38.61;101283.19;5040497;28;45437;-62
2022/07/24 10:26:33;;;;;;;;;11.75;10.00;;;;;28.35;38.34;101283.41;5039573;28;45441;-62
2022/07/24 10:29:10;;;;;;;;;13.25;13.25;;;;;28.44;38.43;101268.28;5040277;28;46844;-62
2022/07/24 10:31:47;;;;;;;;;11.00;10.50;;;;;28.53;38.27;101281.91;5039972;28;45420;-62
2022/07/24 10:34:47;;;;;;;;;9.25;7.75;;;;;28.66;37.96;101286.28;5040192;28;45419;-61
2022/07/24 10:37:25;;;;;;;;;12.25;11.50;;;;;28.77;37.79;101280.03;5040169;28;45591;-62
2022/07/24 10:40:12;;;;;;;;;12.75;12.00;;;;;28.92;38.00;101276.03;5028910;28;46088;-61
2022/07/24 10:43:08;;;;;;;;;11.50;11.50;;;;;29.07;37.41;101271.19;5059870;28;45195;-61
2022/07/24 10:45:35;;;;;;;;;10.50;10.00;;;;;29.24;37.36;101277.84;5060273;28;45482;-62
2022/07/24 10:48:19;;;;;;;;;12.75;11.00;;;;;29.52;37.90;101264.69;5041977;28;45486;-62
2022/07/24 10:50:57;;;;;;;;;9.00;8.25;;;;;29.89;37.88;101271.50;5051131;28;45300;-61
2022/07/24 10:53:26;;;;;;;;;12.00;10.50;;;;;30.34;38.40;101264.78;5060103;28;45210;-61
2022/07/24 10:55:54;;;;;;;;;10.00;10.00;;;;;30.86;38.48;101262.75;5059837;28;45371;-61
2022/07/24 10:58:21;;;;;;;;;12.50;10.75;;;;;31.45;38.72;101249.16;5059805;28;45368;-61
2022/07/24 11:00:50;;;;;;;;;11.75;10.00;;;;;32.09;38.33;101252.13;5059489;28;45407;-60
2022/07/24 11:03:20;;;;;;;;;10.00;10.00;;;;;32.66;38.12;101246.47;5039772;28;45367;-61
2022/07/24 11:06:07;;;;;;;;;6.50;6.50;;;;;33.22;37.87;101240.84;5040004;28;45185;-61
2022/07/24 11:08:39;;;;;;;;;7.75;7.75;;;;;33.74;36.92;101237.31;5047740;28;45612;-61